Time;durP1;ratioP1;P1;durP2;ratioP2;P2;SDS_P1;SDS_P2;PMS_P1;PMS_P2;Temp;Humidity;BMP_temperature;BMP_pressure;BME280_temperature;BME280_humidity;BME280_pressure;Samples;Min_cycle;Max_cycle;Signal;HPM_P1;HPM_P2
2023/07/02 00:02:10;;;;;;;37.78;14.00;;;;;;;16.81;100.00;100808.25;5226350;28;20055;-71
2023/07/02 00:04:41;;;;;;;40.60;15.45;;;;;;;16.81;100.00;100806.38;5225938;28;20022;-72
2023/07/02 00:07:11;;;;;;;42.03;15.48;;;;;;;16.82;100.00;100808.06;5225435;28;20359;-72
2023/07/02 00:09:42;;;;;;;40.35;14.98;;;;;;;16.81;100.00;100806.38;5225864;28;20104;-71
2023/07/02 00:12:13;;;;;;;39.63;14.27;;;;;;;16.79;100.00;100800.34;5225887;28;20055;-72
2023/07/02 00:14:44;;;;;;;44.88;15.07;;;;;;;16.86;100.00;100807.63;5225897;28;20386;-72
2023/07/02 00:17:14;;;;;;;40.17;15.75;;;;;;;16.81;100.00;100805.53;5215099;28;20017;-72
2023/07/02 00:19:46;;;;;;;37.75;15.07;;;;;;;16.83;100.00;100823.28;5214947;28;20024;-72
2023/07/02 00:22:16;;;;;;;39.05;15.88;;;;;;;16.83;100.00;100817.03;5225318;28;20032;-72
2023/07/02 00:24:47;;;;;;;44.60;16.73;;;;;;;16.80;100.00;100809.28;5225946;28;20024;-72
2023/07/02 00:27:18;;;;;;;41.70;16.00;;;;;;;16.80;100.00;100812.84;5225222;28;20025;-72
2023/07/02 00:29:49;;;;;;;40.80;16.17;;;;;;;16.79;100.00;100811.16;5225142;28;20131;-73
2023/07/02 00:32:19;;;;;;;33.20;15.15;;;;;;;16.77;100.00;100810.56;5218910;28;20028;-71
2023/07/02 00:34:50;;;;;;;50.67;17.05;;;;;;;16.72;100.00;100813.06;5218844;28;20025;-71
2023/07/02 00:37:20;;;;;;;42.58;15.70;;;;;;;16.73;100.00;100814.72;5225050;28;20084;-72
2023/07/02 00:39:52;;;;;;;40.80;16.45;;;;;;;16.78;100.00;100816.81;5223034;28;20393;-72
2023/07/02 00:42:23;;;;;;;41.83;15.98;;;;;;;16.78;100.00;100817.63;5214089;28;20033;-72
2023/07/02 00:44:56;;;;;;;40.00;16.60;;;;;;;16.78;100.00;100812.22;5221374;28;20021;-72
2023/07/02 00:47:27;;;;;;;44.63;16.77;;;;;;;16.74;100.00;100807.44;5215364;28;20036;-72
2023/07/02 00:49:57;;;;;;;38.20;16.75;;;;;;;16.73;100.00;100817.44;5223977;28;20031;-72
2023/07/02 00:52:28;;;;;;;45.67;17.00;;;;;;;16.75;100.00;100820.75;5225281;28;20668;-72
2023/07/02 00:54:58;;;;;;;44.88;17.17;;;;;;;16.72;100.00;100818.47;5211577;28;20521;-72
2023/07/02 00:57:29;;;;;;;43.20;16.33;;;;;;;16.70;100.00;100809.66;5224665;28;20047;-72
2023/07/02 01:00:00;;;;;;;42.78;17.00;;;;;;;16.72;100.00;100817.66;5224930;28;20100;-72
2023/07/02 01:02:30;;;;;;;46.45;16.92;;;;;;;16.72;100.00;100821.19;5225991;28;20470;-71
2023/07/02 01:05:02;;;;;;;40.58;18.55;;;;;;;16.68;100.00;100828.00;5225703;28;20028;-71
2023/07/02 01:07:32;;;;;;;42.20;17.25;;;;;;;16.64;100.00;100818.63;5224435;28;20024;-72
2023/07/02 01:10:03;;;;;;;37.88;16.65;;;;;;;16.66;100.00;100821.13;5225438;28;20020;-72
2023/07/02 01:12:36;;;;;;;44.20;18.02;;;;;;;16.63;100.00;100825.09;5225377;28;20057;-72
2023/07/02 01:15:07;;;;;;;41.83;17.10;;;;;;;16.65;100.00;100822.16;5225602;28;20025;-72
2023/07/02 01:17:41;;;;;;;39.13;16.88;;;;;;;16.61;100.00;100831.75;5211175;28;20467;-72
2023/07/02 01:20:12;;;;;;;50.30;18.48;;;;;;;16.62;100.00;100834.25;5217922;28;20122;-72
2023/07/02 01:22:43;;;;;;;48.67;18.42;;;;;;;16.61;100.00;100829.88;5211661;28;20031;-72
2023/07/02 01:25:15;;;;;;;41.13;16.70;;;;;;;16.59;100.00;100831.97;5225114;28;20092;-72
2023/07/02 01:27:46;;;;;;;38.42;17.10;;;;;;;16.60;100.00;100839.03;5224379;28;20437;-71
2023/07/02 01:30:17;;;;;;;50.88;18.77;;;;;;;16.61;100.00;100838.00;5224527;28;20033;-72
2023/07/02 01:32:47;;;;;;;53.75;17.67;;;;;;;16.63;100.00;100835.09;5224913;28;20021;-72
2023/07/02 01:35:17;;;;;;;47.17;18.15;;;;;;;16.61;100.00;100835.28;5224588;28;20037;-72
2023/07/02 01:37:48;;;;;;;45.45;18.80;;;;;;;16.62;100.00;100833.41;5224166;28;20375;-72
2023/07/02 01:40:18;;;;;;;55.78;19.15;;;;;;;16.63;100.00;100843.22;5224820;28;20025;-72
2023/07/02 01:42:49;;;;;;;43.28;18.20;;;;;;;16.58;100.00;100833.00;5224456;28;20025;-72
2023/07/02 01:45:19;;;;;;;41.33;17.85;;;;;;;16.60;100.00;100836.34;5224423;28;20033;-72
2023/07/02 01:47:50;;;;;;;48.38;18.55;;;;;;;16.57;100.00;100834.88;5223857;28;20021;-72
2023/07/02 01:50:21;;;;;;;46.10;18.55;;;;;;;16.58;100.00;100844.66;5224513;28;20052;-71
2023/07/02 01:52:51;;;;;;;47.70;18.50;;;;;;;16.55;100.00;100841.53;5223958;28;20017;-72
2023/07/02 01:55:22;;;;;;;48.08;19.08;;;;;;;16.57;100.00;100842.19;5224233;28;20112;-72
2023/07/02 01:57:53;;;;;;;50.00;18.35;;;;;;;16.55;100.00;100838.81;5223897;28;20056;-72
2023/07/02 02:00:24;;;;;;;51.78;18.38;;;;;;;16.53;100.00;100843.63;5224612;28;20048;-72
2023/07/02 02:02:55;;;;;;;44.22;19.42;;;;;;;16.53;100.00;100846.31;5224229;28;20021;-72
2023/07/02 02:05:26;;;;;;;49.95;18.60;;;;;;;16.56;100.00;100844.03;5224235;28;20115;-72
2023/07/02 02:07:56;;;;;;;48.40;19.38;;;;;;;16.54;100.00;100853.41;5223203;28;20060;-72
2023/07/02 02:10:27;;;;;;;45.25;18.45;;;;;;;16.51;100.00;100848.38;5224064;28;20031;-72
2023/07/02 02:12:58;;;;;;;52.25;18.58;;;;;;;16.46;100.00;100848.16;5223978;28;20028;-72
2023/07/02 02:15:28;;;;;;;47.83;18.67;;;;;;;16.40;100.00;100846.28;5224328;28;20502;-72
2023/07/02 02:17:59;;;;;;;49.88;19.67;;;;;;;16.31;100.00;100854.63;5207233;28;20482;-72
2023/07/02 02:20:30;;;;;;;48.72;20.35;;;;;;;16.28;100.00;100846.88;5218833;28;20100;-72
2023/07/02 02:23:01;;;;;;;58.72;19.80;;;;;;;16.24;100.00;100855.63;5223822;28;20095;-72
2023/07/02 02:25:31;;;;;;;55.05;20.38;;;;;;;16.19;100.00;100855.38;5223793;28;20029;-72
2023/07/02 02:28:02;;;;;;;49.55;19.90;;;;;;;16.15;100.00;100862.25;5223403;28;20437;-72
2023/07/02 02:30:32;;;;;;;61.03;19.85;;;;;;;16.11;100.00;100859.09;5224186;28;20708;-72
2023/07/02 02:33:03;;;;;;;55.83;20.35;;;;;;;16.03;100.00;100857.41;5223722;28;20082;-72
2023/07/02 02:35:33;;;;;;;50.05;20.20;;;;;;;15.98;100.00;100868.00;5223669;28;20453;-72
2023/07/02 02:38:04;;;;;;;53.90;20.88;;;;;;;15.95;100.00;100867.56;5223337;28;20054;-72
2023/07/02 02:40:35;;;;;;;50.70;20.20;;;;;;;15.89;100.00;100871.91;5223860;28;20490;-72
2023/07/02 02:43:05;;;;;;;52.40;20.25;;;;;;;15.84;100.00;100871.69;5223415;28;20158;-72
2023/07/02 02:45:36;;;;;;;57.72;20.55;;;;;;;15.79;100.00;100872.28;5223285;28;20029;-72
2023/07/02 02:48:06;;;;;;;57.50;20.40;;;;;;;15.76;100.00;100875.41;5222999;28;20040;-72
2023/07/02 02:50:41;;;;;;;60.03;21.67;;;;;;;15.73;100.00;100874.94;5223555;28;20530;-72
2023/07/02 02:53:11;;;;;;;52.90;20.50;;;;;;;15.70;100.00;100878.88;5223630;28;20017;-72
2023/07/02 02:55:42;;;;;;;57.50;20.77;;;;;;;15.67;100.00;100881.16;5223079;28;20033;-71
2023/07/02 02:58:12;;;;;;;51.47;20.38;;;;;;;15.65;100.00;100885.91;5218093;28;20252;-72
2023/07/02 03:00:45;;;;;;;56.30;21.17;;;;;;;15.60;100.00;100894.59;5215880;28;20028;-72
2023/07/02 03:03:17;;;;;;;50.70;19.35;;;;;;;15.58;100.00;100899.38;5226016;28;20170;-72
2023/07/02 03:05:48;;;;;;;58.55;21.45;;;;;;;15.54;100.00;100898.09;5226350;28;20052;-72
2023/07/02 03:08:18;;;;;;;64.20;21.80;;;;;;;15.52;100.00;100898.31;5215240;28;20141;-72
2023/07/02 03:10:49;;;;;;;56.92;23.02;;;;;;;15.51;100.00;100893.06;5227876;28;20021;-72
2023/07/02 03:13:19;;;;;;;61.05;22.55;;;;;;;15.51;100.00;100890.38;5227911;28;20029;-72
2023/07/02 03:15:50;;;;;;;62.05;21.17;;;;;;;15.49;100.00;100895.97;5227209;28;20029;-71
2023/07/02 03:18:21;;;;;;;55.00;21.63;;;;;;;15.48;100.00;100901.59;5209245;28;20029;-72
2023/07/02 03:20:51;;;;;;;57.22;21.67;;;;;;;15.46;100.00;100903.63;5225683;28;20029;-72
2023/07/02 03:23:22;;;;;;;55.67;20.80;;;;;;;15.42;100.00;100891.56;5214496;28;20040;-72
2023/07/02 03:25:53;;;;;;;57.38;21.15;;;;;;;15.37;100.00;100902.97;5226782;28;20020;-72
2023/07/02 03:28:23;;;;;;;55.58;21.88;;;;;;;15.36;100.00;100908.56;5226887;28;20032;-71
2023/07/02 03:30:54;;;;;;;63.00;22.17;;;;;;;15.31;100.00;100908.31;5227371;28;20374;-72
2023/07/02 03:33:24;;;;;;;57.70;22.30;;;;;;;15.29;100.00;100914.75;5226813;28;20371;-72
2023/07/02 03:35:55;;;;;;;63.22;22.02;;;;;;;15.31;100.00;100916.41;5226790;28;20062;-72
2023/07/02 03:38:25;;;;;;;71.07;23.02;;;;;;;15.31;100.00;100917.25;5226793;28;20019;-71
2023/07/02 03:40:56;;;;;;;58.47;22.45;;;;;;;15.30;100.00;100920.97;5226832;28;20059;-72
2023/07/02 03:43:26;;;;;;;57.95;21.33;;;;;;;15.29;100.00;100916.63;5226782;28;20170;-72
2023/07/02 03:45:57;;;;;;;67.90;23.38;;;;;;;15.32;100.00;100918.09;5226021;28;20117;-72
2023/07/02 03:48:28;;;;;;;73.22;22.95;;;;;;;15.33;100.00;100922.47;5226682;28;20573;-71
2023/07/02 03:50:58;;;;;;;68.38;22.00;;;;;;;15.32;100.00;100926.22;5226626;28;20104;-71
2023/07/02 03:53:29;;;;;;;59.55;22.80;;;;;;;15.32;100.00;100915.41;5226589;28;20491;-72
2023/07/02 03:55:59;;;;;;;55.38;21.80;;;;;;;15.32;100.00;100918.09;5225769;28;20052;-72
2023/07/02 03:58:30;;;;;;;65.28;23.02;;;;;;;15.31;100.00;100924.53;5226369;28;20025;-72
2023/07/02 04:01:00;;;;;;;63.67;23.10;;;;;;;15.33;100.00;100928.72;5215719;28;20414;-72
2023/07/02 04:03:31;;;;;;;64.10;23.17;;;;;;;15.35;100.00;100934.75;5225819;28;20020;-72
2023/07/02 04:06:01;;;;;;;71.43;22.70;;;;;;;15.38;100.00;100939.78;5225230;28;20120;-71
2023/07/02 04:08:32;;;;;;;73.75;24.30;;;;;;;15.39;100.00;100932.50;5225787;28;20029;-71
2023/07/02 04:11:02;;;;;;;63.13;21.80;;;;;;;15.38;100.00;100942.47;5225690;28;20486;-72
2023/07/02 04:13:33;;;;;;;61.35;23.35;;;;;;;15.41;100.00;100946.66;5214463;28;20025;-72
2023/07/02 04:16:04;;;;;;;61.60;22.80;;;;;;;15.41;100.00;100943.94;5223427;28;20384;-72
2023/07/02 04:18:35;;;;;;;64.28;23.63;;;;;;;-146.26;100.00;65085.03;5206106;28;20033;-72
2023/07/02 04:21:05;;;;;;;71.63;23.98;;;;;;;-146.26;100.00;65085.03;5225629;28;20013;-72
2023/07/02 04:23:35;;;;;;;63.92;23.92;;;;;;;-146.26;100.00;65085.03;5211554;28;20104;-72
2023/07/02 04:26:06;;;;;;;71.40;24.42;;;;;;;-146.26;100.00;65085.03;5214350;28;20025;-72
2023/07/02 04:28:36;;;;;;;62.92;23.33;;;;;;;-146.26;100.00;65085.03;5224590;28;20485;-72
2023/07/02 04:31:07;;;;;;;75.78;24.10;;;;;;;-146.26;100.00;65085.03;5216674;28;20100;-71
2023/07/02 04:33:37;;;;;;;56.78;23.17;;;;;;;-146.26;100.00;65085.03;5231189;28;20055;-71
2023/07/02 04:36:08;;;;;;;78.35;26.05;;;;;;;-146.26;100.00;65085.03;5227195;28;20024;-72
2023/07/02 04:38:39;;;;;;;56.92;23.52;;;;;;;-146.26;100.00;65085.03;5226053;28;20032;-72
2023/07/02 04:41:10;;;;;;;69.10;24.30;;;;;;;-146.26;100.00;65085.03;5214613;28;20075;-73
2023/07/02 04:43:40;;;;;;;71.13;25.88;;;;;;;-146.26;100.00;65085.03;5211754;28;20386;-71
2023/07/02 04:46:12;;;;;;;72.47;23.48;;;;;;;-146.26;100.00;65085.03;5225021;28;20036;-72
2023/07/02 04:48:42;;;;;;;58.97;22.98;;;;;;;-146.26;100.00;65085.03;5218556;28;20116;-72
2023/07/02 04:51:13;;;;;;;64.13;23.27;;;;;;;-146.26;100.00;65085.03;5219438;28;20108;-72
2023/07/02 04:53:43;;;;;;;65.88;22.38;;;;;;;-146.26;100.00;65085.03;5225376;28;20672;-72
2023/07/02 04:56:14;;;;;;;63.53;24.40;;;;;;;-146.26;100.00;65085.03;5211288;28;20034;-72
2023/07/02 04:58:44;;;;;;;60.58;23.83;;;;;;;-146.26;100.00;65085.03;5224929;28;20497;-72
2023/07/02 05:01:15;;;;;;;68.95;24.20;;;;;;;-146.26;100.00;65085.03;5225203;28;20028;-72
2023/07/02 05:03:45;;;;;;;70.57;24.17;;;;;;;-146.26;100.00;65085.03;5225110;28;20033;-72
2023/07/02 05:06:16;;;;;;;63.97;25.67;;;;;;;-146.26;100.00;65085.03;5224592;28;20386;-71
2023/07/02 05:08:46;;;;;;;63.10;24.40;;;;;;;-146.26;100.00;65085.03;5225020;28;20074;-72
2023/07/02 05:11:17;;;;;;;68.55;23.73;;;;;;;-146.26;100.00;65085.03;5223654;28;20471;-72
2023/07/02 05:13:47;;;;;;;64.15;25.48;;;;;;;-146.26;100.00;65085.03;5224808;28;20025;-72
2023/07/02 05:16:17;;;;;;;65.93;24.13;;;;;;;-146.26;100.00;65085.03;5222944;28;20108;-72
2023/07/02 05:18:48;;;;;;;58.88;24.55;;;;;;;-146.26;100.00;65085.03;5219437;28;20052;-72
2023/07/02 05:21:19;;;;;;;66.65;23.83;;;;;;;-146.26;100.00;65085.03;5224837;28;20402;-72
2023/07/02 05:23:49;;;;;;;57.83;24.65;;;;;;;-146.26;100.00;65085.03;5223842;28;20071;-72
2023/07/02 05:26:20;;;;;;;74.07;26.67;;;;;;;-146.26;100.00;65085.03;5223174;28;20075;-72
2023/07/02 05:28:50;;;;;;;68.85;23.60;;;;;;;-146.26;100.00;65085.03;5222540;28;20040;-73
2023/07/02 05:34:11;;;;;;;69.72;24.90;;;;;;;-146.26;100.00;65085.03;5209746;28;20060;-72
2023/07/02 05:36:41;;;;;;;73.28;25.55;;;;;;;-146.26;100.00;65085.03;5222595;28;20021;-72
2023/07/02 05:39:12;;;;;;;71.43;24.33;;;;;;;-146.26;100.00;65085.03;5221386;28;20032;-72
2023/07/02 05:41:42;;;;;;;69.18;24.73;;;;;;;-146.26;100.00;65085.03;5222973;28;20035;-73
2023/07/02 05:44:12;;;;;;;65.75;24.63;;;;;;;-146.26;100.00;65085.03;5223280;28;20226;-73
2023/07/02 05:46:43;;;;;;;66.00;24.45;;;;;;;-146.26;100.00;65085.03;5220681;28;20041;-73
2023/07/02 05:49:13;;;;;;;62.92;23.98;;;;;;;-146.26;100.00;65085.03;5222004;28;20036;-72
2023/07/02 05:51:44;;;;;;;72.38;25.55;;;;;;;-146.26;100.00;65085.03;5222125;28;20170;-73
2023/07/02 05:54:14;;;;;;;54.70;23.33;;;;;;;-146.26;100.00;65085.03;5222681;28;20025;-73
2023/07/02 05:56:45;;;;;;;61.08;25.02;;;;;;;-146.26;100.00;65085.03;5222059;28;20090;-72
2023/07/02 05:59:17;;;;;;;75.20;24.02;;;;;;;-146.26;100.00;65085.03;5221745;28;20063;-72
2023/07/02 06:01:48;;;;;;;60.25;24.27;;;;;;;-146.26;100.00;65085.03;5222476;28;20103;-72
2023/07/02 06:04:18;;;;;;;71.25;24.73;;;;;;;-146.26;100.00;65085.03;5222433;28;20017;-72
2023/07/02 06:06:49;;;;;;;58.63;22.55;;;;;;;-146.26;100.00;65085.03;5221912;28;20052;-72
2023/07/02 06:09:19;;;;;;;64.70;24.55;;;;;;;-146.26;100.00;65085.03;5221658;28;20021;-72
2023/07/02 06:11:50;;;;;;;62.72;23.40;;;;;;;-146.26;100.00;65085.03;5222166;28;20032;-72
2023/07/02 06:14:21;;;;;;;66.82;25.05;;;;;;;-146.26;100.00;65085.03;5222266;28;20021;-73
2023/07/02 06:16:52;;;;;;;61.78;21.67;;;;;;;-146.26;100.00;65085.03;5214762;28;20013;-72
2023/07/02 06:19:23;;;;;;;59.65;23.05;;;;;;;-146.26;100.00;65085.03;5208618;28;20057;-73
2023/07/02 06:21:53;;;;;;;59.08;23.80;;;;;;;-146.26;100.00;65085.03;5221635;28;20056;-72
2023/07/02 06:24:24;;;;;;;58.13;22.90;;;;;;;-146.26;100.00;65085.03;5222308;28;20061;-72
2023/07/02 06:26:54;;;;;;;60.47;23.88;;;;;;;-146.26;100.00;65085.03;5221658;28;20459;-72
2023/07/02 06:29:25;;;;;;;64.70;23.88;;;;;;;-146.26;100.00;65085.03;5221915;28;20028;-72
2023/07/02 06:31:55;;;;;;;66.28;23.17;;;;;;;-146.26;100.00;65085.03;5222042;28;20021;-72
2023/07/02 06:34:26;;;;;;;57.78;23.40;;;;;;;-146.26;100.00;65085.03;5221811;28;20086;-72
2023/07/02 06:36:56;;;;;;;59.70;24.08;;;;;;;-146.26;100.00;65085.03;5220948;28;20466;-72
2023/07/02 06:39:27;;;;;;;60.67;22.42;;;;;;;-146.26;100.00;65085.03;5221751;28;20490;-72
2023/07/02 06:41:57;;;;;;;66.22;25.23;;;;;;;-146.26;100.00;65085.03;5222095;28;20539;-72
2023/07/02 06:44:27;;;;;;;63.30;23.45;;;;;;;-146.26;100.00;65085.03;5222226;28;20155;-72
2023/07/02 06:46:58;;;;;;;56.13;22.90;;;;;;;-146.26;100.00;65085.03;5220933;28;20111;-72
2023/07/02 06:49:29;;;;;;;58.85;23.42;;;;;;;-146.26;100.00;65085.03;5221333;28;20122;-72
2023/07/02 06:52:00;;;;;;;65.50;22.98;;;;;;;-146.26;100.00;65085.03;5221866;28;20020;-72
2023/07/02 06:54:30;;;;;;;55.03;20.80;;;;;;;-146.26;100.00;65085.03;5221800;28;20082;-72
2023/07/02 06:57:01;;;;;;;57.67;22.27;;;;;;;-146.26;100.00;65085.03;5221374;28;20041;-72
2023/07/02 06:59:32;;;;;;;50.15;22.08;;;;;;;-146.26;100.00;65085.03;5220817;28;20021;-72
2023/07/02 07:02:02;;;;;;;65.30;22.08;;;;;;;-146.26;100.00;65085.03;5221634;28;20753;-72
2023/07/02 07:04:34;;;;;;;63.17;21.95;;;;;;;-146.26;100.00;65085.03;5221714;28;20497;-72
2023/07/02 07:07:05;;;;;;;57.50;21.67;;;;;;;-146.26;100.00;65085.03;5221116;28;20055;-72
2023/07/02 07:09:36;;;;;;;52.50;20.92;;;;;;;-146.26;100.00;65085.03;5221283;28;20108;-72
2023/07/02 07:12:07;;;;;;;56.60;21.35;;;;;;;-146.26;100.00;65085.03;5211927;28;20104;-72
2023/07/02 07:14:37;;;;;;;55.97;19.38;;;;;;;-146.26;100.00;65085.03;5220315;28;20056;-72
2023/07/02 07:17:08;;;;;;;62.58;21.17;;;;;;;-146.26;100.00;65085.03;5211537;28;20075;-72
2023/07/02 07:19:39;;;;;;;50.22;17.95;;;;;;;-146.26;100.00;65085.03;5212502;28;20021;-72
2023/07/02 07:22:09;;;;;;;41.47;17.55;;;;;;;-146.26;100.00;65085.03;5218190;28;20040;-72
2023/07/02 07:24:41;;;;;;;43.65;16.45;;;;;;;-146.26;100.00;65085.03;5210955;28;20044;-72
2023/07/02 07:27:12;;;;;;;42.08;15.85;;;;;;;-146.26;100.00;65085.03;5221025;28;20064;-72
2023/07/02 07:29:42;;;;;;;37.40;14.68;;;;;;;-146.26;100.00;65085.03;5219759;28;20109;-73
2023/07/02 07:32:13;;;;;;;40.88;15.38;;;;;;;-146.26;100.00;65085.03;5221313;28;20021;-72
2023/07/02 07:34:43;;;;;;;39.42;14.10;;;;;;;-146.26;100.00;65085.03;5220732;28;20078;-72
2023/07/02 07:37:14;;;;;;;37.67;15.32;;;;;;;-146.26;100.00;65085.03;5216919;28;20537;-72
2023/07/02 07:39:44;;;;;;;43.25;14.52;;;;;;;-146.26;100.00;65085.03;5220546;28;20013;-72
2023/07/02 07:42:16;;;;;;;44.75;13.73;;;;;;;-146.26;100.00;65085.03;5221192;28;20632;-72
2023/07/02 07:44:47;;;;;;;27.05;11.77;;;;;;;-146.26;100.00;65085.03;5219945;28;20495;-72
2023/07/02 07:47:17;;;;;;;32.42;10.48;;;;;;;-146.26;100.00;65085.03;5220183;28;20040;-72
2023/07/02 07:49:48;;;;;;;32.58;11.45;;;;;;;-146.26;100.00;65085.03;5220602;28;20036;-72
2023/07/02 07:52:19;;;;;;;28.67;10.40;;;;;;;-146.26;100.00;65085.03;5224618;28;20379;-72
2023/07/02 07:54:50;;;;;;;26.33;10.48;;;;;;;-146.26;100.00;65085.03;5223843;28;20025;-72
2023/07/02 07:57:20;;;;;;;31.95;10.35;;;;;;;-146.26;100.00;65085.03;5223975;28;20044;-72
2023/07/02 07:59:50;;;;;;;27.02;9.35;;;;;;;-146.26;100.00;65085.03;5223983;28;20031;-71
2023/07/02 08:02:22;;;;;;;24.85;9.52;;;;;;;-146.26;100.00;65085.03;5224046;28;20110;-72
2023/07/02 08:04:53;;;;;;;20.65;8.15;;;;;;;-146.26;100.00;65085.03;5218182;28;20474;-72
2023/07/02 08:07:25;;;;;;;23.75;7.68;;;;;;;-146.26;100.00;65085.03;5218328;28;20160;-72
2023/07/02 08:09:56;;;;;;;27.40;8.55;;;;;;;-146.26;100.00;65085.03;5223456;28;20148;-72
2023/07/02 08:12:29;;;;;;;24.35;8.23;;;;;;;-146.26;100.00;65085.03;5207570;28;20036;-72
2023/07/02 08:15:00;;;;;;;18.52;7.50;;;;;;;-146.26;100.00;65085.03;5224561;28;20021;-72
2023/07/02 08:17:31;;;;;;;21.20;8.32;;;;;;;-146.26;100.00;65085.03;5217144;28;20071;-72
2023/07/02 08:20:04;;;;;;;19.77;6.88;;;;;;;-146.26;100.00;65085.03;5224014;28;20055;-72
2023/07/02 08:22:36;;;;;;;18.00;6.97;;;;;;;-146.26;100.00;65085.03;5212403;28;20032;-72
2023/07/02 08:25:07;;;;;;;20.67;6.88;;;;;;;-146.26;100.00;65085.03;5223677;28;20029;-72
2023/07/02 08:27:38;;;;;;;17.08;6.57;;;;;;;-146.26;100.00;65085.03;5217419;28;20020;-72
2023/07/02 08:30:08;;;;;;;16.65;6.72;;;;;;;-146.26;100.00;65085.03;5223089;28;20021;-72
2023/07/02 08:32:40;;;;;;;16.88;7.70;;;;;;;-146.26;100.00;65085.03;5218538;28;20075;-72
2023/07/02 08:35:10;;;;;;;21.98;6.70;;;;;;;-146.26;100.00;65085.03;5222676;28;20494;-72
2023/07/02 08:37:41;;;;;;;15.77;7.10;;;;;;;-146.26;100.00;65085.03;5221810;28;20028;-72
2023/07/02 08:40:30;;;;;;;19.15;7.00;;;;;;;-146.26;100.00;65085.03;5223305;28;20047;-69
2023/07/02 08:43:01;;;;;;;16.05;5.93;;;;;;;-146.26;100.00;65085.03;5221562;28;20031;-70
2023/07/02 08:45:32;;;;;;;17.13;6.22;;;;;;;-146.26;100.00;65085.03;5222426;28;20024;-70
2023/07/02 08:48:03;;;;;;;15.13;6.57;;;;;;;-146.26;100.00;65085.03;5218924;28;20064;-70
2023/07/02 08:50:34;;;;;;;15.32;6.88;;;;;;;-146.26;100.00;65085.03;5214449;28;20048;-70
2023/07/02 08:53:04;;;;;;;18.60;6.38;;;;;;;-146.26;100.00;65085.03;5223270;28;20482;-70
2023/07/02 08:55:34;;;;;;;15.80;6.18;;;;;;;-146.26;100.00;65085.03;5222975;28;20029;-70
2023/07/02 08:58:05;;;;;;;23.52;7.50;;;;;;;-146.26;100.00;65085.03;5221861;28;20573;-70
2023/07/02 09:00:37;;;;;;;18.38;6.57;;;;;;;-146.26;100.00;65085.03;5221650;28;20031;-70
2023/07/02 09:03:25;;;;;;;23.63;6.85;;;;;;;-146.26;100.00;65085.03;5218334;28;20118;-70
2023/07/02 09:05:56;;;;;;;17.38;6.18;;;;;;;-146.26;100.00;65085.03;5217305;28;20017;-70
2023/07/02 09:08:27;;;;;;;17.83;6.90;;;;;;;-146.26;100.00;65085.03;5222691;28;20433;-69
2023/07/02 09:11:19;;;;;;;14.75;6.97;;;;;;;-146.26;100.00;65085.03;5222225;28;20030;-70
2023/07/02 09:13:53;;;;;;;19.25;6.72;;;;;;;-146.26;100.00;65085.03;5217033;28;20082;-70
2023/07/02 09:16:27;;;;;;;20.83;7.50;;;;;;;-146.26;100.00;65085.03;5218966;28;20487;-70
2023/07/02 09:19:00;;;;;;;18.42;6.72;;;;;;;-146.26;100.00;65085.03;5216640;28;20454;-70
2023/07/02 09:21:50;;;;;;;20.27;7.15;;;;;;;-146.26;100.00;65085.03;5222589;28;20482;-70
2023/07/02 09:24:23;;;;;;;17.23;6.95;;;;;;;-146.26;100.00;65085.03;5220770;28;20028;-70
2023/07/02 09:26:55;;;;;;;20.67;7.22;;;;;;;-146.26;100.00;65085.03;5221785;28;20052;-70
2023/07/02 09:29:29;;;;;;;19.17;8.25;;;;;;;-146.26;100.00;65085.03;5222092;28;20482;-71
2023/07/02 09:32:03;;;;;;;20.20;8.43;;;;;;;-146.26;100.00;65085.03;5222304;28;20072;-71
2023/07/02 09:34:40;;;;;;;15.93;7.35;;;;;;;-146.26;100.00;65085.03;5222714;28;20497;-70
2023/07/02 09:37:10;;;;;;;22.35;8.10;;;;;;;-146.26;100.00;65085.03;5221099;28;20157;-70
2023/07/02 09:39:42;;;;;;;25.27;8.60;;;;;;;-146.26;100.00;65085.03;5222184;28;20579;-71
2023/07/02 09:42:13;;;;;;;25.05;9.73;;;;;;;-146.26;100.00;65085.03;5220916;28;20040;-70
2023/07/02 09:44:44;;;;;;;27.08;8.35;;;;;;;-146.26;100.00;65085.03;5222481;28;20025;-70
2023/07/02 09:47:18;;;;;;;24.45;10.32;;;;;;;-146.26;100.00;65085.03;5221183;28;20035;-70
2023/07/02 09:49:55;;;;;;;26.38;10.27;;;;;;;-146.26;100.00;65085.03;5221789;28;20033;-71
2023/07/02 09:52:27;;;;;;;25.95;8.88;;;;;;;-146.26;100.00;65085.03;5214733;28;20029;-70
2023/07/02 09:54:58;;;;;;;24.20;9.85;;;;;;;-146.26;100.00;65085.03;5220380;28;20017;-70
2023/07/02 09:57:31;;;;;;;27.95;10.40;;;;;;;-146.26;100.00;65085.03;5221601;28;20028;-70
2023/07/02 10:00:03;;;;;;;31.23;10.68;;;;;;;-146.26;100.00;65085.03;5221726;28;20029;-70
2023/07/02 10:02:36;;;;;;;28.52;10.35;;;;;;;-146.26;100.00;65085.03;5215271;28;20032;-70
2023/07/02 10:05:07;;;;;;;31.05;10.85;;;;;;;-146.26;100.00;65085.03;5215984;28;20104;-70
2023/07/02 10:07:37;;;;;;;31.08;10.13;;;;;;;-146.26;100.00;65085.03;5220931;28;20158;-70
2023/07/02 10:10:08;;;;;;;28.73;10.25;;;;;;;-146.26;100.00;65085.03;5221812;28;20017;-70
2023/07/02 10:12:46;;;;;;;24.90;9.13;;;;;;;-146.26;100.00;65085.03;5221622;28;20044;-70
2023/07/02 10:15:25;;;;;;;28.30;9.75;;;;;;;-146.26;100.00;65085.03;5212157;28;20063;-70
2023/07/02 10:17:58;;;;;;;28.98;10.60;;;;;;;-146.26;100.00;65085.03;5208929;28;20021;-70
2023/07/02 10:20:41;;;;;;;30.33;10.77;;;;;;;-146.26;100.00;65085.03;5221293;28;20033;-70
2023/07/02 10:23:11;;;;;;;30.17;10.75;;;;;;;-146.26;100.00;65085.03;5221208;28;20037;-71
2023/07/02 10:25:42;;;;;;;23.85;10.15;;;;;;;-146.26;100.00;65085.03;5221055;28;20032;-71
2023/07/02 10:28:31;;;;;;;28.38;10.32;;;;;;;-146.26;100.00;65085.03;5221191;28;20029;-70
2023/07/02 10:31:02;;;;;;;27.75;11.20;;;;;;;-146.26;100.00;65085.03;5217637;28;20096;-70
2023/07/02 10:33:32;;;;;;;26.75;11.02;;;;;;;-146.26;100.00;65085.03;5221713;28;20135;-70
2023/07/02 10:36:03;;;;;;;29.45;11.35;;;;;;;-146.26;100.00;65085.03;5221177;28;20060;-71
2023/07/02 10:38:33;;;;;;;34.95;11.38;;;;;;;-146.26;100.00;65085.03;5219838;28;20021;-70
2023/07/02 10:41:04;;;;;;;32.72;10.95;;;;;;;-146.26;100.00;65085.03;5221771;28;20021;-71
2023/07/02 10:43:34;;;;;;;32.63;10.75;;;;;;;-146.26;100.00;65085.03;5221408;28;20604;-70
2023/07/02 10:46:05;;;;;;;26.88;10.50;;;;;;;-146.26;100.00;65085.03;5211258;28;20433;-71
2023/07/02 10:48:35;;;;;;;26.55;10.52;;;;;;;-146.26;100.00;65085.03;5214687;28;20676;-71
2023/07/02 10:51:26;;;;;;;30.02;11.15;;;;;;;-146.26;100.00;65085.03;5220375;28;20426;-71
2023/07/02 10:54:00;;;;;;;30.63;10.20;;;;;;;-146.26;100.00;65085.03;5221166;28;20389;-70
2023/07/02 10:56:32;;;;;;;32.10;11.15;;;;;;;-146.26;100.00;65085.03;5220502;28;20405;-70
2023/07/02 10:59:03;;;;;;;32.42;11.02;;;;;;;-146.26;100.00;65085.03;5216216;28;20067;-73
2023/07/02 11:01:34;;;;;;;26.05;9.93;;;;;;;-146.26;100.00;65085.03;5221166;28;20029;-73
2023/07/02 11:04:04;;;;;;;30.75;11.85;;;;;;;-146.26;100.00;65085.03;5219368;28;20653;-73
2023/07/02 11:06:35;;;;;;;27.05;9.93;;;;;;;-146.26;100.00;65085.03;5215734;28;20037;-73
2023/07/02 11:09:16;;;;;;;26.38;9.05;;;;;;;-146.26;100.00;65085.03;5214243;28;20059;-73
2023/07/02 11:12:05;;;;;;;24.13;8.88;;;;;;;-146.26;100.00;65085.03;5216618;28;20482;-73
2023/07/02 11:14:36;;;;;;;24.67;9.15;;;;;;;-146.26;100.00;65085.03;5221021;28;20108;-72
2023/07/02 11:17:07;;;;;;;24.70;9.05;;;;;;;-146.26;100.00;65085.03;5213237;28;20022;-73
2023/07/02 11:19:37;;;;;;;32.40;10.10;;;;;;;-146.26;100.00;65085.03;5221015;28;20029;-72
2023/07/02 11:22:08;;;;;;;24.65;9.85;;;;;;;-146.26;100.00;65085.03;5210116;28;20044;-72